sensor_id;sensor_type;location;lat;lon;timestamp;temperature;humidity
14723;DHT22;7452;55.594;12.986;2022-12-07T00:01:41;2.20;99.90
14723;DHT22;7452;55.594;12.986;2022-12-07T00:04:12;2.20;99.90
14723;DHT22;7452;55.594;12.986;2022-12-07T00:06:41;2.20;99.90
14723;DHT22;7452;55.594;12.986;2022-12-07T00:09:12;2.20;99.90
14723;DHT22;7452;55.594;12.986;2022-12-07T00:11:39;2.20;99.90
14723;DHT22;7452;55.594;12.986;2022-12-07T00:14:10;2.30;99.90
14723;DHT22;7452;55.594;12.986;2022-12-07T00:16:40;2.30;99.90
14723;DHT22;7452;55.594;12.986;2022-12-07T00:19:08;2.30;99.90
14723;DHT22;7452;55.594;12.986;2022-12-07T00:21:36;2.30;99.90
14723;DHT22;7452;55.594;12.986;2022-12-07T00:24:05;2.30;99.90
14723;DHT22;7452;55.594;12.986;2022-12-07T00:26:34;2.30;99.90
14723;DHT22;7452;55.594;12.986;2022-12-07T00:29:02;2.30;99.90
14723;DHT22;7452;55.594;12.986;2022-12-07T00:31:32;2.40;99.90
14723;DHT22;7452;55.594;12.986;2022-12-07T00:34:02;2.40;99.90
14723;DHT22;7452;55.594;12.986;2022-12-07T00:36:30;2.30;99.90
14723;DHT22;7452;55.594;12.986;2022-12-07T00:38:59;2.40;99.90
14723;DHT22;7452;55.594;12.986;2022-12-07T00:41:29;2.40;99.90
14723;DHT22;7452;55.594;12.986;2022-12-07T00:43:57;2.50;99.90
14723;DHT22;7452;55.594;12.986;2022-12-07T00:46:25;2.60;99.90
14723;DHT22;7452;55.594;12.986;2022-12-07T00:48:54;2.60;99.90
14723;DHT22;7452;55.594;12.986;2022-12-07T00:51:31;2.70;99.90
14723;DHT22;7452;55.594;12.986;2022-12-07T00:54:00;2.70;99.90
14723;DHT22;7452;55.594;12.986;2022-12-07T00:56:28;2.70;99.90
14723;DHT22;7452;55.594;12.986;2022-12-07T00:58:57;2.70;99.90
14723;DHT22;7452;55.594;12.986;2022-12-07T01:01:28;2.80;99.90
14723;DHT22;7452;55.594;12.986;2022-12-07T01:03:55;2.80;99.90
14723;DHT22;7452;55.594;12.986;2022-12-07T01:06:23;2.80;99.90
14723;DHT22;7452;55.594;12.986;2022-12-07T01:08:53;2.80;99.90
14723;DHT22;7452;55.594;12.986;2022-12-07T01:11:21;2.80;99.90
14723;DHT22;7452;55.594;12.986;2022-12-07T01:13:51;2.90;99.90
14723;DHT22;7452;55.594;12.986;2022-12-07T01:16:19;2.80;99.90
14723;DHT22;7452;55.594;12.986;2022-12-07T01:18:48;2.80;99.90
14723;DHT22;7452;55.594;12.986;2022-12-07T01:21:18;2.80;99.90
14723;DHT22;7452;55.594;12.986;2022-12-07T01:23:46;2.80;99.90
14723;DHT22;7452;55.594;12.986;2022-12-07T01:26:21;2.80;99.90
14723;DHT22;7452;55.594;12.986;2022-12-07T01:28:50;2.90;99.90
14723;DHT22;7452;55.594;12.986;2022-12-07T01:31:22;2.90;99.90
14723;DHT22;7452;55.594;12.986;2022-12-07T01:33:51;3.00;99.90
14723;DHT22;7452;55.594;12.986;2022-12-07T01:36:21;3.00;99.90
14723;DHT22;7452;55.594;12.986;2022-12-07T01:38:50;3.10;99.90
14723;DHT22;7452;55.594;12.986;2022-12-07T01:41:20;3.00;99.90
14723;DHT22;7452;55.594;12.986;2022-12-07T01:44:19;3.00;99.90
14723;DHT22;7452;55.594;12.986;2022-12-07T01:46:48;3.10;99.90
14723;DHT22;7452;55.594;12.986;2022-12-07T01:49:21;3.00;99.90
14723;DHT22;7452;55.594;12.986;2022-12-07T01:51:51;3.10;99.90
14723;DHT22;7452;55.594;12.986;2022-12-07T01:54:22;3.10;99.90
14723;DHT22;7452;55.594;12.986;2022-12-07T01:56:52;3.10;99.90
14723;DHT22;7452;55.594;12.986;2022-12-07T01:59:23;3.10;99.90
14723;DHT22;7452;55.594;12.986;2022-12-07T02:01:51;3.10;99.90
14723;DHT22;7452;55.594;12.986;2022-12-07T02:04:19;3.10;99.90
14723;DHT22;7452;55.594;12.986;2022-12-07T02:06:47;3.10;99.90
14723;DHT22;7452;55.594;12.986;2022-12-07T02:09:14;3.10;99.90
14723;DHT22;7452;55.594;12.986;2022-12-07T02:11:42;3.10;99.90
14723;DHT22;7452;55.594;12.986;2022-12-07T02:14:13;3.10;99.90
14723;DHT22;7452;55.594;12.986;2022-12-07T02:16:50;3.10;99.90
14723;DHT22;7452;55.594;12.986;2022-12-07T02:19:45;3.10;99.90
14723;DHT22;7452;55.594;12.986;2022-12-07T02:22:34;3.10;99.90
14723;DHT22;7452;55.594;12.986;2022-12-07T02:25:11;3.10;99.90
14723;DHT22;7452;55.594;12.986;2022-12-07T02:27:46;3.20;99.90
14723;DHT22;7452;55.594;12.986;2022-12-07T02:30:17;3.20;99.90
14723;DHT22;7452;55.594;12.986;2022-12-07T02:32:58;3.20;99.90
14723;DHT22;7452;55.594;12.986;2022-12-07T02:35:34;3.20;99.90
14723;DHT22;7452;55.594;12.986;2022-12-07T02:38:08;3.10;99.90
14723;DHT22;7452;55.594;12.986;2022-12-07T02:40:40;3.20;99.90
14723;DHT22;7452;55.594;12.986;2022-12-07T02:43:10;3.10;99.90
14723;DHT22;7452;55.594;12.986;2022-12-07T02:45:41;3.10;99.90
14723;DHT22;7452;55.594;12.986;2022-12-07T02:48:12;3.10;99.90
14723;DHT22;7452;55.594;12.986;2022-12-07T02:50:47;3.10;99.90
14723;DHT22;7452;55.594;12.986;2022-12-07T02:53:33;3.10;99.90
14723;DHT22;7452;55.594;12.986;2022-12-07T02:56:07;3.10;99.90
14723;DHT22;7452;55.594;12.986;2022-12-07T02:58:42;3.10;99.90
14723;DHT22;7452;55.594;12.986;2022-12-07T03:01:23;3.20;99.90
14723;DHT22;7452;55.594;12.986;2022-12-07T03:04:01;3.20;99.90
14723;DHT22;7452;55.594;12.986;2022-12-07T03:06:34;3.20;99.90
14723;DHT22;7452;55.594;12.986;2022-12-07T03:09:13;3.20;99.90
14723;DHT22;7452;55.594;12.986;2022-12-07T03:11:46;3.20;99.90
14723;DHT22;7452;55.594;12.986;2022-12-07T03:14:17;3.20;99.90
14723;DHT22;7452;55.594;12.986;2022-12-07T03:16:52;3.10;99.90
14723;DHT22;7452;55.594;12.986;2022-12-07T03:19:24;3.10;99.90
14723;DHT22;7452;55.594;12.986;2022-12-07T03:21:55;3.10;99.90
14723;DHT22;7452;55.594;12.986;2022-12-07T03:24:26;3.10;99.90
14723;DHT22;7452;55.594;12.986;2022-12-07T03:26:59;3.10;99.90
14723;DHT22;7452;55.594;12.986;2022-12-07T03:29:32;3.10;99.90
14723;DHT22;7452;55.594;12.986;2022-12-07T03:32:06;3.10;99.90
14723;DHT22;7452;55.594;12.986;2022-12-07T03:34:40;3.00;99.90
14723;DHT22;7452;55.594;12.986;2022-12-07T03:37:17;3.00;99.90
14723;DHT22;7452;55.594;12.986;2022-12-07T03:39:52;2.90;99.90
14723;DHT22;7452;55.594;12.986;2022-12-07T03:42:20;2.90;99.90
14723;DHT22;7452;55.594;12.986;2022-12-07T03:44:47;2.90;99.90
14723;DHT22;7452;55.594;12.986;2022-12-07T03:47:25;2.90;99.90
14723;DHT22;7452;55.594;12.986;2022-12-07T03:50:00;2.80;99.90
14723;DHT22;7452;55.594;12.986;2022-12-07T03:52:33;2.80;99.90
14723;DHT22;7452;55.594;12.986;2022-12-07T03:55:08;2.80;99.90
14723;DHT22;7452;55.594;12.986;2022-12-07T03:57:38;2.80;99.90
14723;DHT22;7452;55.594;12.986;2022-12-07T04:00:08;2.80;99.90
14723;DHT22;7452;55.594;12.986;2022-12-07T04:02:39;2.80;99.90
14723;DHT22;7452;55.594;12.986;2022-12-07T04:05:08;2.80;99.90
14723;DHT22;7452;55.594;12.986;2022-12-07T04:07:35;2.80;99.90
14723;DHT22;7452;55.594;12.986;2022-12-07T04:10:03;2.80;99.90
14723;DHT22;7452;55.594;12.986;2022-12-07T04:12:33;2.80;99.90
14723;DHT22;7452;55.594;12.986;2022-12-07T04:15:01;2.80;99.90
14723;DHT22;7452;55.594;12.986;2022-12-07T04:17:29;2.80;99.90
14723;DHT22;7452;55.594;12.986;2022-12-07T04:20:01;2.80;99.90
14723;DHT22;7452;55.594;12.986;2022-12-07T04:22:28;2.80;99.90
14723;DHT22;7452;55.594;12.986;2022-12-07T04:24:56;2.80;99.90
14723;DHT22;7452;55.594;12.986;2022-12-07T04:27:23;2.70;99.90
14723;DHT22;7452;55.594;12.986;2022-12-07T04:29:52;2.70;99.90
14723;DHT22;7452;55.594;12.986;2022-12-07T04:32:21;2.70;99.90
14723;DHT22;7452;55.594;12.986;2022-12-07T04:34:49;2.70;99.90
14723;DHT22;7452;55.594;12.986;2022-12-07T04:37:18;2.60;99.90
14723;DHT22;7452;55.594;12.986;2022-12-07T04:39:45;2.60;99.90
14723;DHT22;7452;55.594;12.986;2022-12-07T04:42:12;2.60;99.90
14723;DHT22;7452;55.594;12.986;2022-12-07T04:44:41;2.50;99.90
14723;DHT22;7452;55.594;12.986;2022-12-07T04:47:09;2.50;99.90
14723;DHT22;7452;55.594;12.986;2022-12-07T04:49:37;2.50;99.90
14723;DHT22;7452;55.594;12.986;2022-12-07T04:52:04;2.50;99.90
14723;DHT22;7452;55.594;12.986;2022-12-07T04:54:33;2.50;99.90
14723;DHT22;7452;55.594;12.986;2022-12-07T04:57:00;2.60;99.90
14723;DHT22;7452;55.594;12.986;2022-12-07T04:59:28;2.60;99.90
14723;DHT22;7452;55.594;12.986;2022-12-07T05:01:55;2.60;99.90
14723;DHT22;7452;55.594;12.986;2022-12-07T05:04:23;2.60;99.90
14723;DHT22;7452;55.594;12.986;2022-12-07T05:06:51;2.50;99.90
14723;DHT22;7452;55.594;12.986;2022-12-07T05:09:18;2.50;99.90
14723;DHT22;7452;55.594;12.986;2022-12-07T05:11:47;2.50;99.90
14723;DHT22;7452;55.594;12.986;2022-12-07T05:14:16;2.40;99.90
14723;DHT22;7452;55.594;12.986;2022-12-07T05:16:45;2.40;99.90
14723;DHT22;7452;55.594;12.986;2022-12-07T05:19:13;2.40;99.90
14723;DHT22;7452;55.594;12.986;2022-12-07T05:21:41;2.40;99.90
14723;DHT22;7452;55.594;12.986;2022-12-07T05:24:10;2.40;99.90
14723;DHT22;7452;55.594;12.986;2022-12-07T05:26:38;2.40;99.90
14723;DHT22;7452;55.594;12.986;2022-12-07T05:29:11;2.40;99.90
14723;DHT22;7452;55.594;12.986;2022-12-07T05:31:40;2.40;99.90
14723;DHT22;7452;55.594;12.986;2022-12-07T05:34:07;2.30;99.90
14723;DHT22;7452;55.594;12.986;2022-12-07T05:36:34;2.30;99.90
14723;DHT22;7452;55.594;12.986;2022-12-07T05:39:02;2.30;99.90
14723;DHT22;7452;55.594;12.986;2022-12-07T05:41:29;2.30;99.90
14723;DHT22;7452;55.594;12.986;2022-12-07T05:44:15;2.30;99.90
14723;DHT22;7452;55.594;12.986;2022-12-07T05:46:42;2.20;99.90
14723;DHT22;7452;55.594;12.986;2022-12-07T05:49:09;2.20;99.90
14723;DHT22;7452;55.594;12.986;2022-12-07T05:51:36;2.10;99.90
14723;DHT22;7452;55.594;12.986;2022-12-07T05:54:04;2.00;99.90
14723;DHT22;7452;55.594;12.986;2022-12-07T05:56:32;1.90;99.90
14723;DHT22;7452;55.594;12.986;2022-12-07T05:59:01;1.80;99.90
14723;DHT22;7452;55.594;12.986;2022-12-07T06:01:47;1.80;99.90
14723;DHT22;7452;55.594;12.986;2022-12-07T06:04:15;1.70;99.90
14723;DHT22;7452;55.594;12.986;2022-12-07T06:06:43;1.70;99.90
14723;DHT22;7452;55.594;12.986;2022-12-07T06:09:10;1.70;99.90
14723;DHT22;7452;55.594;12.986;2022-12-07T06:11:38;1.60;99.90
14723;DHT22;7452;55.594;12.986;2022-12-07T06:14:23;1.60;99.90
14723;DHT22;7452;55.594;12.986;2022-12-07T06:16:52;1.60;99.90
14723;DHT22;7452;55.594;12.986;2022-12-07T06:19:20;1.60;99.90
14723;DHT22;7452;55.594;12.986;2022-12-07T06:21:48;1.60;99.90
14723;DHT22;7452;55.594;12.986;2022-12-07T06:24:16;1.60;99.90
14723;DHT22;7452;55.594;12.986;2022-12-07T06:26:45;1.70;99.90
14723;DHT22;7452;55.594;12.986;2022-12-07T06:29:13;1.70;99.90
14723;DHT22;7452;55.594;12.986;2022-12-07T06:31:40;1.70;99.90
14723;DHT22;7452;55.594;12.986;2022-12-07T06:34:15;1.70;99.90
14723;DHT22;7452;55.594;12.986;2022-12-07T06:36:42;1.70;99.90
14723;DHT22;7452;55.594;12.986;2022-12-07T06:39:10;1.70;99.90
14723;DHT22;7452;55.594;12.986;2022-12-07T06:41:38;1.70;99.90
14723;DHT22;7452;55.594;12.986;2022-12-07T06:44:06;1.60;99.90
14723;DHT22;7452;55.594;12.986;2022-12-07T06:46:34;1.50;99.90
14723;DHT22;7452;55.594;12.986;2022-12-07T06:49:02;1.50;99.90
14723;DHT22;7452;55.594;12.986;2022-12-07T06:51:30;1.50;99.90
14723;DHT22;7452;55.594;12.986;2022-12-07T06:53:58;1.40;99.90
14723;DHT22;7452;55.594;12.986;2022-12-07T06:56:25;1.30;99.90
14723;DHT22;7452;55.594;12.986;2022-12-07T06:58:54;1.20;99.90
14723;DHT22;7452;55.594;12.986;2022-12-07T07:01:21;1.10;99.90
14723;DHT22;7452;55.594;12.986;2022-12-07T07:03:48;1.10;99.90
14723;DHT22;7452;55.594;12.986;2022-12-07T07:06:15;1.00;99.90
14723;DHT22;7452;55.594;12.986;2022-12-07T07:08:45;1.00;99.90
14723;DHT22;7452;55.594;12.986;2022-12-07T07:11:14;0.90;99.90
14723;DHT22;7452;55.594;12.986;2022-12-07T07:13:45;0.90;99.90
14723;DHT22;7452;55.594;12.986;2022-12-07T07:16:13;0.90;99.90
14723;DHT22;7452;55.594;12.986;2022-12-07T07:18:40;0.90;99.90
14723;DHT22;7452;55.594;12.986;2022-12-07T07:21:08;0.90;99.90
14723;DHT22;7452;55.594;12.986;2022-12-07T07:23:35;1.00;99.90
14723;DHT22;7452;55.594;12.986;2022-12-07T07:26:04;1.10;99.90
14723;DHT22;7452;55.594;12.986;2022-12-07T07:28:32;1.20;99.90
14723;DHT22;7452;55.594;12.986;2022-12-07T07:31:02;1.30;99.90
14723;DHT22;7452;55.594;12.986;2022-12-07T07:33:29;1.30;99.90
14723;DHT22;7452;55.594;12.986;2022-12-07T07:35:56;1.40;99.90
14723;DHT22;7452;55.594;12.986;2022-12-07T07:38:23;1.40;99.90
14723;DHT22;7452;55.594;12.986;2022-12-07T07:40:50;1.40;99.90
14723;DHT22;7452;55.594;12.986;2022-12-07T07:43:19;1.40;99.90
14723;DHT22;7452;55.594;12.986;2022-12-07T07:45:47;1.40;99.90
14723;DHT22;7452;55.594;12.986;2022-12-07T07:48:14;1.40;99.90
14723;DHT22;7452;55.594;12.986;2022-12-07T07:50:43;1.50;99.90
14723;DHT22;7452;55.594;12.986;2022-12-07T07:53:10;1.60;99.90
14723;DHT22;7452;55.594;12.986;2022-12-07T07:55:37;1.60;99.90
14723;DHT22;7452;55.594;12.986;2022-12-07T07:58:04;1.50;99.90
14723;DHT22;7452;55.594;12.986;2022-12-07T08:00:34;1.50;99.90
14723;DHT22;7452;55.594;12.986;2022-12-07T08:03:01;1.50;99.90
14723;DHT22;7452;55.594;12.986;2022-12-07T08:05:28;1.50;99.90
14723;DHT22;7452;55.594;12.986;2022-12-07T08:07:55;1.50;99.90
14723;DHT22;7452;55.594;12.986;2022-12-07T08:10:24;1.50;99.90
14723;DHT22;7452;55.594;12.986;2022-12-07T08:12:51;1.50;99.90
14723;DHT22;7452;55.594;12.986;2022-12-07T08:15:41;1.50;99.90
14723;DHT22;7452;55.594;12.986;2022-12-07T08:18:10;1.60;99.90
14723;DHT22;7452;55.594;12.986;2022-12-07T08:20:41;1.60;99.90
14723;DHT22;7452;55.594;12.986;2022-12-07T08:23:11;1.60;99.90
14723;DHT22;7452;55.594;12.986;2022-12-07T08:25:38;1.60;99.90
14723;DHT22;7452;55.594;12.986;2022-12-07T08:28:06;1.60;99.90
14723;DHT22;7452;55.594;12.986;2022-12-07T08:30:34;1.60;99.90
14723;DHT22;7452;55.594;12.986;2022-12-07T08:33:02;1.70;99.90
14723;DHT22;7452;55.594;12.986;2022-12-07T08:35:32;1.70;99.90
14723;DHT22;7452;55.594;12.986;2022-12-07T08:37:59;1.70;99.90
14723;DHT22;7452;55.594;12.986;2022-12-07T08:40:27;1.70;99.90
14723;DHT22;7452;55.594;12.986;2022-12-07T08:42:56;1.70;99.90
14723;DHT22;7452;55.594;12.986;2022-12-07T08:45:24;1.70;99.90
14723;DHT22;7452;55.594;12.986;2022-12-07T08:47:55;1.80;99.90
14723;DHT22;7452;55.594;12.986;2022-12-07T08:50:25;1.70;99.90
14723;DHT22;7452;55.594;12.986;2022-12-07T08:52:54;1.70;99.90
14723;DHT22;7452;55.594;12.986;2022-12-07T08:55:22;1.70;99.90
14723;DHT22;7452;55.594;12.986;2022-12-07T08:57:50;1.70;99.90
14723;DHT22;7452;55.594;12.986;2022-12-07T09:00:21;1.70;99.90
14723;DHT22;7452;55.594;12.986;2022-12-07T09:02:48;1.60;99.90
14723;DHT22;7452;55.594;12.986;2022-12-07T09:05:17;1.60;99.90
14723;DHT22;7452;55.594;12.986;2022-12-07T09:07:51;1.60;99.90
14723;DHT22;7452;55.594;12.986;2022-12-07T09:10:19;1.60;99.90
14723;DHT22;7452;55.594;12.986;2022-12-07T09:12:46;1.60;99.90
14723;DHT22;7452;55.594;12.986;2022-12-07T09:15:13;1.70;99.90
14723;DHT22;7452;55.594;12.986;2022-12-07T09:17:43;1.80;99.90
14723;DHT22;7452;55.594;12.986;2022-12-07T09:20:12;1.80;99.90
14723;DHT22;7452;55.594;12.986;2022-12-07T09:22:40;1.80;99.90
14723;DHT22;7452;55.594;12.986;2022-12-07T09:25:11;1.80;99.90
14723;DHT22;7452;55.594;12.986;2022-12-07T09:27:38;1.70;99.90
14723;DHT22;7452;55.594;12.986;2022-12-07T09:30:06;1.80;99.90
14723;DHT22;7452;55.594;12.986;2022-12-07T09:32:34;1.80;99.90
14723;DHT22;7452;55.594;12.986;2022-12-07T09:35:05;1.70;99.90
14723;DHT22;7452;55.594;12.986;2022-12-07T09:37:32;1.70;99.90
14723;DHT22;7452;55.594;12.986;2022-12-07T09:40:02;1.80;99.90
14723;DHT22;7452;55.594;12.986;2022-12-07T09:42:34;1.80;99.90
14723;DHT22;7452;55.594;12.986;2022-12-07T09:45:02;1.80;99.90
14723;DHT22;7452;55.594;12.986;2022-12-07T09:47:32;1.90;99.90
14723;DHT22;7452;55.594;12.986;2022-12-07T09:50:03;1.80;99.90
14723;DHT22;7452;55.594;12.986;2022-12-07T09:52:31;1.90;99.90
14723;DHT22;7452;55.594;12.986;2022-12-07T09:54:59;1.90;99.90
14723;DHT22;7452;55.594;12.986;2022-12-07T09:57:32;1.90;99.90
14723;DHT22;7452;55.594;12.986;2022-12-07T10:00:07;1.90;99.90
14723;DHT22;7452;55.594;12.986;2022-12-07T10:02:38;1.90;99.90
14723;DHT22;7452;55.594;12.986;2022-12-07T10:05:12;2.00;99.90
14723;DHT22;7452;55.594;12.986;2022-12-07T10:07:44;1.90;99.90
14723;DHT22;7452;55.594;12.986;2022-12-07T10:10:15;2.00;99.90
14723;DHT22;7452;55.594;12.986;2022-12-07T10:13:02;2.00;99.90
14723;DHT22;7452;55.594;12.986;2022-12-07T10:15:45;2.20;99.90
14723;DHT22;7452;55.594;12.986;2022-12-07T10:18:28;2.20;99.90
14723;DHT22;7452;55.594;12.986;2022-12-07T10:21:13;2.40;99.90
14723;DHT22;7452;55.594;12.986;2022-12-07T10:23:43;2.40;99.90
14723;DHT22;7452;55.594;12.986;2022-12-07T10:26:31;2.50;99.90
14723;DHT22;7452;55.594;12.986;2022-12-07T10:29:02;2.50;99.90
14723;DHT22;7452;55.594;12.986;2022-12-07T10:31:30;2.50;99.90
14723;DHT22;7452;55.594;12.986;2022-12-07T10:34:00;2.50;99.90
14723;DHT22;7452;55.594;12.986;2022-12-07T10:36:34;2.50;99.90
14723;DHT22;7452;55.594;12.986;2022-12-07T10:39:09;2.50;99.90
14723;DHT22;7452;55.594;12.986;2022-12-07T10:41:53;2.50;99.90
14723;DHT22;7452;55.594;12.986;2022-12-07T10:44:26;2.30;99.90
14723;DHT22;7452;55.594;12.986;2022-12-07T10:50:04;2.30;99.90
14723;DHT22;7452;55.594;12.986;2022-12-07T10:52:45;2.30;99.90
14723;DHT22;7452;55.594;12.986;2022-12-07T10:55:20;2.20;99.90
14723;DHT22;7452;55.594;12.986;2022-12-07T10:58:12;2.20;99.90
14723;DHT22;7452;55.594;12.986;2022-12-07T11:00:50;2.20;99.90
14723;DHT22;7452;55.594;12.986;2022-12-07T11:03:31;2.30;99.90
14723;DHT22;7452;55.594;12.986;2022-12-07T11:06:10;2.30;99.90
14723;DHT22;7452;55.594;12.986;2022-12-07T11:08:52;2.30;99.90
14723;DHT22;7452;55.594;12.986;2022-12-07T11:11:27;2.30;99.90
14723;DHT22;7452;55.594;12.986;2022-12-07T11:14:00;2.30;99.90
14723;DHT22;7452;55.594;12.986;2022-12-07T11:16:52;2.30;99.90
14723;DHT22;7452;55.594;12.986;2022-12-07T11:22:23;2.30;99.90
14723;DHT22;7452;55.594;12.986;2022-12-07T11:25:02;2.20;99.90
14723;DHT22;7452;55.594;12.986;2022-12-07T11:27:35;2.20;99.90
14723;DHT22;7452;55.594;12.986;2022-12-07T11:30:11;2.20;99.90
14723;DHT22;7452;55.594;12.986;2022-12-07T11:33:07;2.20;99.90
14723;DHT22;7452;55.594;12.986;2022-12-07T11:35:52;2.20;99.90
14723;DHT22;7452;55.594;12.986;2022-12-07T11:38:30;2.20;99.90
14723;DHT22;7452;55.594;12.986;2022-12-07T11:41:00;2.20;99.90
14723;DHT22;7452;55.594;12.986;2022-12-07T11:43:46;2.20;99.90
14723;DHT22;7452;55.594;12.986;2022-12-07T11:46:18;2.20;99.90
14723;DHT22;7452;55.594;12.986;2022-12-07T11:48:55;2.20;99.90
14723;DHT22;7452;55.594;12.986;2022-12-07T11:51:26;2.20;99.90
14723;DHT22;7452;55.594;12.986;2022-12-07T11:53:55;2.20;99.90
14723;DHT22;7452;55.594;12.986;2022-12-07T11:56:27;2.20;99.90
14723;DHT22;7452;55.594;12.986;2022-12-07T11:58:57;2.10;99.90
14723;DHT22;7452;55.594;12.986;2022-12-07T12:01:36;2.10;99.90
14723;DHT22;7452;55.594;12.986;2022-12-07T12:04:27;2.20;99.90
14723;DHT22;7452;55.594;12.986;2022-12-07T12:06:55;2.20;99.90
14723;DHT22;7452;55.594;12.986;2022-12-07T12:09:26;2.30;99.90
14723;DHT22;7452;55.594;12.986;2022-12-07T12:12:25;2.30;99.90
14723;DHT22;7452;55.594;12.986;2022-12-07T12:15:03;2.30;99.90
14723;DHT22;7452;55.594;12.986;2022-12-07T12:17:56;2.40;99.90
14723;DHT22;7452;55.594;12.986;2022-12-07T12:20:32;2.40;99.90
14723;DHT22;7452;55.594;12.986;2022-12-07T12:23:07;2.40;99.90
14723;DHT22;7452;55.594;12.986;2022-12-07T12:25:40;2.40;99.90
14723;DHT22;7452;55.594;12.986;2022-12-07T12:28:20;2.40;99.90
14723;DHT22;7452;55.594;12.986;2022-12-07T12:31:05;2.40;99.90
14723;DHT22;7452;55.594;12.986;2022-12-07T12:33:33;2.40;99.90
14723;DHT22;7452;55.594;12.986;2022-12-07T12:36:27;2.40;99.90
14723;DHT22;7452;55.594;12.986;2022-12-07T12:39:12;2.50;99.90
14723;DHT22;7452;55.594;12.986;2022-12-07T12:41:56;2.50;99.90
14723;DHT22;7452;55.594;12.986;2022-12-07T12:47:41;2.40;99.90
14723;DHT22;7452;55.594;12.986;2022-12-07T12:50:16;2.40;99.90
14723;DHT22;7452;55.594;12.986;2022-12-07T12:59:25;2.40;99.90
14723;DHT22;7452;55.594;12.986;2022-12-07T13:02:07;2.40;99.90
14723;DHT22;7452;55.594;12.986;2022-12-07T13:04:51;2.40;99.90
14723;DHT22;7452;55.594;12.986;2022-12-07T13:10:40;2.30;99.90
14723;DHT22;7452;55.594;12.986;2022-12-07T13:13:31;2.30;99.90
14723;DHT22;7452;55.594;12.986;2022-12-07T13:16:37;2.20;99.90
14723;DHT22;7452;55.594;12.986;2022-12-07T13:25:08;2.10;99.90
14723;DHT22;7452;55.594;12.986;2022-12-07T13:27:41;2.20;99.90
14723;DHT22;7452;55.594;12.986;2022-12-07T13:30:15;2.20;99.90
14723;DHT22;7452;55.594;12.986;2022-12-07T13:32:52;2.20;99.90
14723;DHT22;7452;55.594;12.986;2022-12-07T13:35:31;2.30;99.90
14723;DHT22;7452;55.594;12.986;2022-12-07T13:38:02;2.30;99.90
14723;DHT22;7452;55.594;12.986;2022-12-07T13:40:30;2.20;99.90
14723;DHT22;7452;55.594;12.986;2022-12-07T13:43:05;2.30;99.90
14723;DHT22;7452;55.594;12.986;2022-12-07T13:45:41;2.30;99.90
14723;DHT22;7452;55.594;12.986;2022-12-07T13:48:22;2.20;99.90
14723;DHT22;7452;55.594;12.986;2022-12-07T13:50:55;2.20;99.90
14723;DHT22;7452;55.594;12.986;2022-12-07T13:53:25;2.20;99.90
14723;DHT22;7452;55.594;12.986;2022-12-07T13:55:56;2.10;99.90
14723;DHT22;7452;55.594;12.986;2022-12-07T13:58:25;2.10;99.90
14723;DHT22;7452;55.594;12.986;2022-12-07T14:00:53;2.10;99.90
14723;DHT22;7452;55.594;12.986;2022-12-07T14:03:29;2.10;99.90
14723;DHT22;7452;55.594;12.986;2022-12-07T14:06:06;2.00;99.90
14723;DHT22;7452;55.594;12.986;2022-12-07T14:08:36;1.90;99.90
14723;DHT22;7452;55.594;12.986;2022-12-07T14:11:03;1.90;99.90
14723;DHT22;7452;55.594;12.986;2022-12-07T14:13:33;1.80;99.90
14723;DHT22;7452;55.594;12.986;2022-12-07T14:16:01;1.80;99.90
14723;DHT22;7452;55.594;12.986;2022-12-07T14:18:37;1.80;99.90
14723;DHT22;7452;55.594;12.986;2022-12-07T14:21:05;1.80;99.90
14723;DHT22;7452;55.594;12.986;2022-12-07T14:23:34;1.80;99.90
14723;DHT22;7452;55.594;12.986;2022-12-07T14:26:07;1.70;99.90
14723;DHT22;7452;55.594;12.986;2022-12-07T14:28:37;1.70;99.90
14723;DHT22;7452;55.594;12.986;2022-12-07T14:31:11;1.60;99.90
14723;DHT22;7452;55.594;12.986;2022-12-07T14:33:38;1.60;99.90
14723;DHT22;7452;55.594;12.986;2022-12-07T14:36:07;1.60;99.90
14723;DHT22;7452;55.594;12.986;2022-12-07T14:38:35;1.60;99.90
14723;DHT22;7452;55.594;12.986;2022-12-07T14:41:03;1.60;99.90
14723;DHT22;7452;55.594;12.986;2022-12-07T14:43:53;1.50;99.90
14723;DHT22;7452;55.594;12.986;2022-12-07T14:46:20;1.40;99.90
14723;DHT22;7452;55.594;12.986;2022-12-07T14:48:47;1.40;99.90
14723;DHT22;7452;55.594;12.986;2022-12-07T14:51:14;1.40;99.90
14723;DHT22;7452;55.594;12.986;2022-12-07T14:53:44;1.30;99.90
14723;DHT22;7452;55.594;12.986;2022-12-07T14:56:13;1.30;99.90
14723;DHT22;7452;55.594;12.986;2022-12-07T14:58:41;1.20;99.90
14723;DHT22;7452;55.594;12.986;2022-12-07T15:01:11;1.20;99.90
14723;DHT22;7452;55.594;12.986;2022-12-07T15:03:40;1.10;99.90
14723;DHT22;7452;55.594;12.986;2022-12-07T15:06:10;1.10;99.90
14723;DHT22;7452;55.594;12.986;2022-12-07T15:08:41;1.10;99.90
14723;DHT22;7452;55.594;12.986;2022-12-07T15:11:12;1.10;99.90
14723;DHT22;7452;55.594;12.986;2022-12-07T15:13:40;1.00;99.90
14723;DHT22;7452;55.594;12.986;2022-12-07T15:16:26;1.00;99.90
14723;DHT22;7452;55.594;12.986;2022-12-07T15:18:53;1.00;99.90
14723;DHT22;7452;55.594;12.986;2022-12-07T15:21:20;1.00;99.90
14723;DHT22;7452;55.594;12.986;2022-12-07T15:23:52;1.00;99.90
14723;DHT22;7452;55.594;12.986;2022-12-07T15:26:21;1.00;99.90
14723;DHT22;7452;55.594;12.986;2022-12-07T15:28:49;0.90;99.90
14723;DHT22;7452;55.594;12.986;2022-12-07T15:31:17;0.90;99.90
14723;DHT22;7452;55.594;12.986;2022-12-07T15:33:47;0.90;99.90
14723;DHT22;7452;55.594;12.986;2022-12-07T15:36:23;0.90;99.90
14723;DHT22;7452;55.594;12.986;2022-12-07T15:38:51;0.90;99.90
14723;DHT22;7452;55.594;12.986;2022-12-07T15:41:19;0.80;99.90
14723;DHT22;7452;55.594;12.986;2022-12-07T15:43:46;0.80;99.90
14723;DHT22;7452;55.594;12.986;2022-12-07T15:46:29;0.80;99.90
14723;DHT22;7452;55.594;12.986;2022-12-07T15:48:59;0.90;99.90
14723;DHT22;7452;55.594;12.986;2022-12-07T15:51:27;0.80;99.90
14723;DHT22;7452;55.594;12.986;2022-12-07T15:53:57;0.90;99.90
14723;DHT22;7452;55.594;12.986;2022-12-07T15:56:25;0.90;99.90
14723;DHT22;7452;55.594;12.986;2022-12-07T15:58:54;0.90;99.90
14723;DHT22;7452;55.594;12.986;2022-12-07T16:01:23;0.90;99.90
14723;DHT22;7452;55.594;12.986;2022-12-07T16:03:50;0.90;99.90
14723;DHT22;7452;55.594;12.986;2022-12-07T16:06:19;0.90;99.90
14723;DHT22;7452;55.594;12.986;2022-12-07T16:08:46;0.90;99.90
14723;DHT22;7452;55.594;12.986;2022-12-07T16:11:14;0.90;99.90
14723;DHT22;7452;55.594;12.986;2022-12-07T16:13:44;0.80;99.90
14723;DHT22;7452;55.594;12.986;2022-12-07T16:16:16;0.90;99.90
14723;DHT22;7452;55.594;12.986;2022-12-07T16:18:46;0.80;99.90
14723;DHT22;7452;55.594;12.986;2022-12-07T16:21:13;0.70;99.90
14723;DHT22;7452;55.594;12.986;2022-12-07T16:23:42;0.70;99.90
14723;DHT22;7452;55.594;12.986;2022-12-07T16:26:13;0.70;99.90
14723;DHT22;7452;55.594;12.986;2022-12-07T16:28:43;0.80;99.90
14723;DHT22;7452;55.594;12.986;2022-12-07T16:31:13;0.80;99.90
14723;DHT22;7452;55.594;12.986;2022-12-07T16:33:41;0.80;99.90
14723;DHT22;7452;55.594;12.986;2022-12-07T16:36:13;0.80;99.90
14723;DHT22;7452;55.594;12.986;2022-12-07T16:38:43;0.80;99.90